Time;durP1;ratioP1;P1;durP2;ratioP2;P2;SDS_P1;SDS_P2;PMS_P1;PMS_P2;Temp;Humidity;BMP_temperature;BMP_pressure;BME280_temperature;BME280_humidity;BME280_pressure;Samples;Min_cycle;Max_cycle;Signal;HPM_P1;HPM_P2
2022/07/11 00:00:49;;;;;;;13.93;8.07;;;;;;;;;;5006000;28;20310;-68
2022/07/11 00:03:14;;;;;;;11.50;7.00;;;;;;;;;;5001245;28;20025;-68
2022/07/11 00:05:39;;;;;;;15.23;7.70;;;;;;;;;;5005292;28;21004;-68
2022/07/11 00:08:06;;;;;;;13.33;7.23;;;;;;;;;;4999441;28;20279;-68
2022/07/11 00:10:31;;;;;;;11.07;7.40;;;;;;;;;;4997364;28;21138;-68
2022/07/11 00:12:57;;;;;;;10.73;7.23;;;;;;;;;;5003290;28;20247;-68
2022/07/11 00:15:22;;;;;;;9.30;6.90;;;;;;;;;;5002936;28;20025;-68
2022/07/11 00:17:47;;;;;;;13.23;6.47;;;;;;;;;;5005143;28;20062;-68
2022/07/11 00:20:12;;;;;;;10.47;7.23;;;;;;;;;;5008280;28;20030;-68
2022/07/11 00:22:37;;;;;;;12.75;7.03;;;;;;;;;;5004827;28;20287;-68
2022/07/11 00:25:02;;;;;;;15.47;6.77;;;;;;;;;;5002143;28;20625;-68
2022/07/11 00:27:28;;;;;;;13.68;7.22;;;;;;;;;;5005045;28;20288;-68
2022/07/11 00:29:53;;;;;;;12.23;6.95;;;;;;;;;;5006161;28;20014;-68
2022/07/11 00:32:18;;;;;;;14.37;7.33;;;;;;;;;;5007499;28;20087;-68
2022/07/11 00:34:43;;;;;;;10.43;7.53;;;;;;;;;;4999013;28;20021;-68
2022/07/11 00:37:08;;;;;;;13.30;7.90;;;;;;;;;;4998058;28;20338;-68
2022/07/11 00:39:33;;;;;;;14.30;7.40;;;;;;;;;;5000899;28;20373;-68
2022/07/11 00:42:00;;;;;;;12.68;7.45;;;;;;;;;;5002489;28;20045;-68
2022/07/11 00:44:25;;;;;;;14.35;7.97;;;;;;;;;;5002370;28;20041;-68
2022/07/11 00:46:50;;;;;;;15.80;8.13;;;;;;;;;;4998210;28;20026;-68
2022/07/11 00:49:16;;;;;;;17.90;9.55;;;;;;;;;;5001016;28;20271;-68
2022/07/11 00:51:41;;;;;;;16.83;9.25;;;;;;;;;;4998489;28;20030;-68
2022/07/11 00:54:07;;;;;;;15.32;9.40;;;;;;;;;;5002227;28;20026;-68
2022/07/11 00:56:32;;;;;;;20.55;8.90;;;;;;;;;;5000427;28;20164;-68
2022/07/11 00:58:58;;;;;;;11.53;8.80;;;;;;;;;;5003164;28;20524;-68
2022/07/11 01:01:24;;;;;;;17.42;8.32;;;;;;;;;;5003030;28;20275;-68
2022/07/11 01:03:49;;;;;;;13.97;9.07;;;;;;;;;;4999342;28;20026;-68
2022/07/11 01:06:14;;;;;;;11.80;8.23;;;;;;;;;;5001292;28;20048;-68
2022/07/11 01:08:40;;;;;;;14.63;8.45;;;;;;;;;;5003815;28;20022;-68
2022/07/11 01:11:09;;;;;;;18.38;9.10;;;;;;;;;;5006104;28;20013;-68
2022/07/11 01:13:34;;;;;;;13.77;8.63;;;;;;;;;;5003221;28;20032;-68
2022/07/11 01:16:09;;;;;;;17.93;8.77;;;;;;;;;;4999252;28;20025;-67
2022/07/11 01:18:34;;;;;;;15.43;8.43;;;;;;;;;;4998668;28;20349;-68
2022/07/11 01:20:59;;;;;;;14.75;7.90;;;;;;;;;;5009630;28;20061;-68
2022/07/11 01:23:24;;;;;;;15.53;8.00;;;;;;;;;;5002698;28;20140;-68
2022/07/11 01:25:50;;;;;;;14.37;9.27;;;;;;;;;;4997666;28;20283;-68
2022/07/11 01:28:15;;;;;;;11.32;8.13;;;;;;;;;;5003734;28;20633;-68
2022/07/11 01:30:40;;;;;;;18.53;8.97;;;;;;;;;;5004889;28;20022;-68
2022/07/11 01:33:06;;;;;;;18.00;9.00;;;;;;;;;;5007106;28;20299;-68
2022/07/11 01:35:31;;;;;;;16.13;9.13;;;;;;;;;;5002983;28;20275;-68
2022/07/11 01:37:56;;;;;;;16.50;8.65;;;;;;;;;;5004515;28;20026;-68
2022/07/11 01:40:21;;;;;;;13.93;8.83;;;;;;;;;;5004417;28;20026;-68
2022/07/11 01:42:46;;;;;;;13.33;8.83;;;;;;;;;;5000795;28;20307;-68
2022/07/11 01:45:12;;;;;;;19.30;9.27;;;;;;;;;;4997522;28;20041;-68
2022/07/11 01:47:37;;;;;;;12.95;8.40;;;;;;;;;;5004449;28;20105;-68
2022/07/11 01:50:03;;;;;;;16.02;9.10;;;;;;;;;;5002704;28;20377;-68
2022/07/11 01:52:28;;;;;;;13.20;9.13;;;;;;;;;;5001537;28;20050;-68
2022/07/11 01:54:54;;;;;;;18.23;8.80;;;;;;;;;;4994064;28;20495;-68
2022/07/11 01:57:19;;;;;;;16.23;8.52;;;;;;;;;;4996785;28;20029;-68
2022/07/11 01:59:44;;;;;;;18.73;8.30;;;;;;;;;;4998816;28;20034;-68
2022/07/11 02:02:09;;;;;;;17.57;9.00;;;;;;;;;;4995709;28;20276;-68
2022/07/11 02:04:34;;;;;;;15.00;8.80;;;;;;;;;;5004314;28;20275;-68
2022/07/11 02:07:00;;;;;;;16.73;8.77;;;;;;;;;;5002111;28;20132;-68
2022/07/11 02:09:25;;;;;;;16.70;8.27;;;;;;;;;;5001796;28;20022;-68
2022/07/11 02:11:50;;;;;;;16.20;9.18;;;;;;;;;;5000049;28;20417;-68
2022/07/11 02:14:15;;;;;;;15.03;8.43;;;;;;;;;;5000650;28;20412;-68
2022/07/11 02:16:41;;;;;;;13.87;8.40;;;;;;;;;;5000761;28;20433;-68
2022/07/11 02:19:06;;;;;;;19.17;7.95;;;;;;;;;;5006590;28;20057;-68
2022/07/11 02:21:31;;;;;;;20.90;8.90;;;;;;;;;;5001856;28;20030;-68
2022/07/11 02:23:56;;;;;;;14.55;8.65;;;;;;;;;;5002298;28;20036;-68
2022/07/11 02:26:22;;;;;;;18.57;8.40;;;;;;;;;;5003745;28;20489;-68
2022/07/11 02:28:47;;;;;;;17.67;9.03;;;;;;;;;;5001549;28;20018;-68
2022/07/11 02:31:12;;;;;;;17.23;8.63;;;;;;;;;;4997734;28;20391;-68
2022/07/11 02:33:37;;;;;;;17.77;8.88;;;;;;;;;;5003266;28;20677;-68
2022/07/11 02:36:03;;;;;;;15.20;7.50;;;;;;;;;;5002798;28;20103;-68
2022/07/11 02:38:28;;;;;;;17.90;8.10;;;;;;;;;;5002682;28;21070;-68
2022/07/11 02:40:53;;;;;;;17.42;8.48;;;;;;;;;;5001306;28;20136;-68
2022/07/11 02:43:18;;;;;;;18.80;8.40;;;;;;;;;;5000175;28;20040;-68
2022/07/11 02:45:44;;;;;;;13.35;7.47;;;;;;;;;;5000314;28;20271;-68
2022/07/11 02:48:09;;;;;;;17.92;9.10;;;;;;;;;;5006404;28;20399;-68
2022/07/11 02:50:34;;;;;;;17.23;8.90;;;;;;;;;;5003694;28;20045;-68
2022/07/11 02:52:59;;;;;;;13.98;8.15;;;;;;;;;;5006239;28;20642;-68
2022/07/11 02:55:24;;;;;;;14.87;7.77;;;;;;;;;;5000890;28;20038;-68
2022/07/11 02:57:50;;;;;;;14.53;9.10;;;;;;;;;;5002743;28;20313;-68
2022/07/11 03:00:16;;;;;;;16.17;8.52;;;;;;;;;;5000020;28;20030;-68
2022/07/11 03:02:41;;;;;;;15.32;7.70;;;;;;;;;;5002653;28;20022;-68
2022/07/11 03:05:07;;;;;;;15.13;8.48;;;;;;;;;;5003757;28;20026;-68
2022/07/11 03:07:32;;;;;;;14.68;8.15;;;;;;;;;;5006272;28;20484;-68
2022/07/11 03:09:57;;;;;;;19.43;8.47;;;;;;;;;;5006200;28;20026;-68
2022/07/11 03:12:22;;;;;;;15.07;7.70;;;;;;;;;;5003405;28;20014;-68
2022/07/11 03:14:48;;;;;;;18.27;7.57;;;;;;;;;;5003276;28;20026;-68
2022/07/11 03:17:13;;;;;;;18.85;7.40;;;;;;;;;;5006512;28;20460;-68
2022/07/11 03:19:38;;;;;;;12.68;6.72;;;;;;;;;;5006376;28;20064;-68
2022/07/11 03:22:04;;;;;;;13.03;6.67;;;;;;;;;;5001593;28;20407;-68
2022/07/11 03:24:29;;;;;;;13.05;6.97;;;;;;;;;;5000333;28;20057;-68
2022/07/11 03:26:54;;;;;;;13.25;5.85;;;;;;;;;;5001406;28;20034;-68
2022/07/11 03:29:19;;;;;;;21.27;6.40;;;;;;;;;;4996357;28;20344;-68
2022/07/11 03:31:45;;;;;;;14.40;6.63;;;;;;;;;;4995803;28;20279;-68
2022/07/11 03:34:10;;;;;;;9.03;5.93;;;;;;;;;;4999369;28;20388;-68
2022/07/11 03:36:35;;;;;;;10.97;6.10;;;;;;;;;;5002402;28;20109;-68
2022/07/11 03:39:00;;;;;;;16.43;5.47;;;;;;;;;;5002339;28;20022;-68
2022/07/11 03:41:25;;;;;;;11.20;5.03;;;;;;;;;;5000478;28;20543;-68
2022/07/11 03:43:50;;;;;;;10.20;5.40;;;;;;;;;;5001865;28;20028;-68
2022/07/11 03:46:16;;;;;;;17.80;6.03;;;;;;;;;;4999596;28;20730;-68
2022/07/11 03:48:41;;;;;;;14.55;5.72;;;;;;;;;;5002638;28;20796;-68
2022/07/11 03:51:06;;;;;;;10.30;5.45;;;;;;;;;;5001593;28;20022;-68
2022/07/11 03:53:31;;;;;;;11.38;5.43;;;;;;;;;;5000866;28;20569;-68
2022/07/11 03:55:57;;;;;;;16.90;5.70;;;;;;;;;;5001433;28;20433;-68
2022/07/11 03:58:22;;;;;;;14.47;5.10;;;;;;;;;;5000968;28;20279;-68
2022/07/11 04:00:47;;;;;;;14.10;5.45;;;;;;;;;;5005962;28;20274;-68
2022/07/11 04:03:12;;;;;;;12.07;4.95;;;;;;;;;;4993519;28;20378;-68
2022/07/11 04:05:37;;;;;;;9.80;5.23;;;;;;;;;;4995392;28;20033;-68
2022/07/11 04:08:03;;;;;;;16.10;4.73;;;;;;;;;;4995511;28;20772;-68
2022/07/11 04:10:28;;;;;;;10.63;5.45;;;;;;;;;;5000136;28;20317;-68
2022/07/11 04:12:53;;;;;;;9.77;4.60;;;;;;;;;;4991029;28;20026;-68
2022/07/11 04:15:18;;;;;;;7.47;4.20;;;;;;;;;;4990998;28;20607;-68
2022/07/11 04:17:43;;;;;;;8.80;3.88;;;;;;;;;;4997227;28;20069;-68
2022/07/11 04:20:09;;;;;;;6.72;3.90;;;;;;;;;;5000507;28;20180;-68
2022/07/11 04:22:34;;;;;;;6.65;3.47;;;;;;;;;;4999385;28;20519;-68
2022/07/11 04:24:59;;;;;;;8.68;3.95;;;;;;;;;;5000070;28;20066;-68
2022/07/11 04:27:25;;;;;;;8.97;4.00;;;;;;;;;;5003301;28;20311;-68
2022/07/11 04:29:50;;;;;;;7.05;3.60;;;;;;;;;;5002426;28;20625;-68
2022/07/11 04:32:15;;;;;;;8.18;3.40;;;;;;;;;;5003577;28;20037;-68
2022/07/11 04:34:41;;;;;;;6.40;3.17;;;;;;;;;;4999948;28;20017;-68
2022/07/11 04:37:06;;;;;;;7.38;3.80;;;;;;;;;;4999299;28;20487;-68
2022/07/11 04:39:34;;;;;;;5.43;3.13;;;;;;;;;;5002623;28;20368;-67
2022/07/11 04:42:00;;;;;;;4.78;3.13;;;;;;;;;;4994945;28;20030;-68
2022/07/11 04:44:26;;;;;;;5.40;3.30;;;;;;;;;;5002644;28;20112;-68
2022/07/11 04:46:51;;;;;;;7.97;2.88;;;;;;;;;;4999230;28;20635;-68
2022/07/11 04:49:16;;;;;;;7.77;2.73;;;;;;;;;;4998242;28;20033;-68
2022/07/11 04:51:41;;;;;;;4.30;2.60;;;;;;;;;;5000149;28;20789;-68
2022/07/11 04:54:07;;;;;;;4.50;2.35;;;;;;;;;;4995108;28;20025;-68
2022/07/11 04:56:32;;;;;;;7.68;2.42;;;;;;;;;;5001371;28;20029;-67
2022/07/11 04:58:57;;;;;;;2.85;2.50;;;;;;;;;;5001376;28;20053;-68
2022/07/11 05:01:22;;;;;;;3.70;2.28;;;;;;;;;;4999716;28;20100;-67
2022/07/11 05:03:48;;;;;;;3.67;2.58;;;;;;;;;;5001014;28;20033;-68
2022/07/11 05:06:13;;;;;;;4.53;2.70;;;;;;;;;;5004073;28;20469;-68
2022/07/11 05:08:38;;;;;;;9.70;2.80;;;;;;;;;;5009887;28;20029;-68
2022/07/11 05:11:04;;;;;;;5.47;2.87;;;;;;;;;;5006516;28;20294;-68
2022/07/11 05:13:29;;;;;;;7.63;2.80;;;;;;;;;;5001177;28;20330;-68
2022/07/11 05:15:54;;;;;;;5.68;3.13;;;;;;;;;;5003109;28;20030;-67
2022/07/11 05:18:20;;;;;;;5.40;2.95;;;;;;;;;;5002670;28;20030;-67
2022/07/11 05:20:45;;;;;;;3.73;3.37;;;;;;;;;;5002906;28;20033;-68
2022/07/11 05:23:10;;;;;;;4.68;3.00;;;;;;;;;;5000417;28;20809;-68
2022/07/11 05:25:35;;;;;;;7.00;2.90;;;;;;;;;;4999337;28;20037;-67
2022/07/11 05:28:00;;;;;;;5.88;3.05;;;;;;;;;;5007042;28;20425;-67
2022/07/11 05:30:26;;;;;;;7.87;3.43;;;;;;;;;;5000688;28;20495;-68
2022/07/11 05:32:51;;;;;;;6.80;3.05;;;;;;;;;;5003464;28;20030;-68
2022/07/11 05:35:16;;;;;;;7.90;3.00;;;;;;;;;;4998975;28;20136;-68
2022/07/11 05:37:41;;;;;;;5.83;2.67;;;;;;;;;;4985478;28;20716;-68
2022/07/11 05:40:07;;;;;;;6.22;3.00;;;;;;;;;;5007566;28;20115;-68
2022/07/11 05:42:33;;;;;;;5.55;2.92;;;;;;;;;;5006392;28;20025;-68
2022/07/11 05:44:58;;;;;;;5.55;3.05;;;;;;;;;;4998949;28;20524;-67
2022/07/11 05:47:23;;;;;;;4.72;2.67;;;;;;;;;;4999621;28;20121;-68
2022/07/11 05:49:49;;;;;;;4.67;3.33;;;;;;;;;;5001555;28;20065;-68
2022/07/11 05:52:14;;;;;;;4.38;2.92;;;;;;;;;;4998211;28;20033;-68
2022/07/11 05:54:39;;;;;;;7.18;3.10;;;;;;;;;;4990064;28;21615;-68
2022/07/11 05:57:05;;;;;;;8.55;3.55;;;;;;;;;;4988086;28;20036;-68
2022/07/11 05:59:30;;;;;;;6.97;3.35;;;;;;;;;;4986101;28;20026;-68
2022/07/11 06:01:55;;;;;;;7.70;3.53;;;;;;;;;;4989865;28;20519;-68
2022/07/11 06:04:21;;;;;;;7.53;2.92;;;;;;;;;;4999288;28;20777;-68
2022/07/11 06:06:46;;;;;;;5.80;2.60;;;;;;;;;;5001376;28;20274;-68
2022/07/11 06:09:11;;;;;;;8.48;3.10;;;;;;;;;;5005667;28;20676;-69
2022/07/11 06:11:36;;;;;;;7.35;2.80;;;;;;;;;;4995879;28;20455;-67
2022/07/11 06:14:02;;;;;;;3.15;2.63;;;;;;;;;;4998265;28;20025;-68
2022/07/11 06:16:27;;;;;;;6.22;3.10;;;;;;;;;;4999971;28;20495;-67
2022/07/11 06:18:53;;;;;;;2.67;2.47;;;;;;;;;;5005673;28;20033;-68
2022/07/11 06:21:20;;;;;;;7.75;2.92;;;;;;;;;;5007716;28;20295;-67
2022/07/11 06:23:45;;;;;;;7.13;3.03;;;;;;;;;;5006675;28;20354;-67
2022/07/11 06:26:15;;;;;;;4.80;2.53;;;;;;;;;;4998180;28;20037;-67
2022/07/11 06:28:40;;;;;;;6.45;2.70;;;;;;;;;;5006272;28;20045;-67
2022/07/11 06:31:05;;;;;;;3.30;2.60;;;;;;;;;;4997356;28;20416;-67
2022/07/11 06:33:30;;;;;;;5.33;2.77;;;;;;;;;;5003015;28;20030;-68
2022/07/11 06:35:55;;;;;;;6.37;2.63;;;;;;;;;;5003869;28;20057;-65
2022/07/11 06:38:21;;;;;;;5.85;2.67;;;;;;;;;;5007642;28;20029;-66
2022/07/11 06:40:46;;;;;;;6.57;2.83;;;;;;;;;;5003712;28;20038;-65
2022/07/11 06:43:11;;;;;;;8.65;2.60;;;;;;;;;;5008180;28;20037;-66
2022/07/11 06:45:37;;;;;;;5.78;3.25;;;;;;;;;;5003871;28;20369;-65
2022/07/11 06:48:02;;;;;;;5.22;3.50;;;;;;;;;;5007290;28;20025;-65
2022/07/11 06:50:28;;;;;;;5.28;2.97;;;;;;;;;;5004773;28;20519;-65
2022/07/11 06:52:53;;;;;;;5.50;3.33;;;;;;;;;;5005287;28;20495;-65
2022/07/11 06:55:18;;;;;;;6.23;3.67;;;;;;;;;;5004747;28;20271;-66
2022/07/11 06:57:43;;;;;;;5.43;3.27;;;;;;;;;;5002274;28;20761;-65
2022/07/11 07:00:09;;;;;;;4.30;2.73;;;;;;;;;;4999277;28;20279;-66
2022/07/11 07:02:35;;;;;;;4.97;3.65;;;;;;;;;;4997963;28;20761;-66
2022/07/11 07:05:00;;;;;;;4.28;2.60;;;;;;;;;;5000892;28;20037;-65
2022/07/11 07:07:26;;;;;;;5.05;2.90;;;;;;;;;;5003016;28;20025;-67
2022/07/11 07:09:51;;;;;;;3.75;2.92;;;;;;;;;;4995101;28;20137;-66
2022/07/11 07:12:16;;;;;;;3.65;2.75;;;;;;;;;;4998560;28;20136;-66
2022/07/11 07:14:42;;;;;;;4.13;2.67;;;;;;;;;;4996692;28;20037;-66
2022/07/11 07:17:07;;;;;;;6.10;2.67;;;;;;;;;;5001121;28;20290;-66
2022/07/11 07:19:32;;;;;;;7.07;3.30;;;;;;;;;;5001297;28;20044;-66
2022/07/11 07:21:57;;;;;;;7.28;2.58;;;;;;;;;;5000420;28;20283;-66
2022/07/11 07:24:22;;;;;;;3.50;2.40;;;;;;;;;;4997967;28;20137;-66
2022/07/11 07:26:47;;;;;;;2.60;2.37;;;;;;;;;;5004533;28;20437;-66
2022/07/11 07:29:13;;;;;;;3.05;2.60;;;;;;;;;;5003244;28;20036;-66
2022/07/11 07:31:38;;;;;;;2.87;2.50;;;;;;;;;;5001733;28;20030;-66
2022/07/11 07:34:04;;;;;;;2.33;1.97;;;;;;;;;;4995519;28;20286;-66
2022/07/11 07:36:29;;;;;;;2.63;2.30;;;;;;;;;;5004685;28;20310;-66
2022/07/11 07:38:55;;;;;;;3.42;2.22;;;;;;;;;;5000448;28;20066;-66
2022/07/11 07:41:20;;;;;;;4.83;2.20;;;;;;;;;;5002272;28;20096;-66
2022/07/11 07:43:48;;;;;;;3.17;1.88;;;;;;;;;;4994498;28;20032;-66
2022/07/11 07:46:13;;;;;;;2.42;1.63;;;;;;;;;;4997321;28;20628;-66
2022/07/11 07:48:38;;;;;;;4.10;2.30;;;;;;;;;;5003642;28;20076;-66
2022/07/11 07:51:04;;;;;;;1.83;1.73;;;;;;;;;;5004181;28;20290;-66
2022/07/11 07:53:29;;;;;;;1.70;1.60;;;;;;;;;;5000065;28;20018;-66
2022/07/11 07:55:54;;;;;;;2.57;2.00;;;;;;;;;;5001185;28;20025;-66
2022/07/11 07:58:19;;;;;;;3.13;1.98;;;;;;;;;;5003255;28;20034;-66
2022/07/11 08:03:28;;;;;;;2.45;1.95;;;;;;;;;;5000897;28;20061;-66
2022/07/11 08:05:53;;;;;;;3.08;2.10;;;;;;;;;;5004148;28;20070;-66
2022/07/11 08:08:18;;;;;;;2.20;2.00;;;;;;;;;;4995597;28;20430;-66
2022/07/11 08:10:43;;;;;;;1.60;1.50;;;;;;;;;;5004594;28;20874;-67
2022/07/11 08:13:08;;;;;;;1.80;1.60;;;;;;;;;;4997218;28;20106;-67
2022/07/11 08:15:34;;;;;;;2.87;1.67;;;;;;;;;;4995931;28;20483;-66
2022/07/11 08:17:59;;;;;;;2.13;1.53;;;;;;;;;;4998984;28;20679;-66
2022/07/11 08:20:24;;;;;;;1.33;1.27;;;;;;;;;;4995871;28;20125;-66
2022/07/11 08:22:49;;;;;;;1.95;1.08;;;;;;;;;;4995045;28;20038;-66
2022/07/11 08:25:14;;;;;;;1.30;1.20;;;;;;;;;;4992460;28;20539;-67
2022/07/11 08:27:40;;;;;;;1.30;1.20;;;;;;;;;;5001268;28;20034;-67
2022/07/11 08:30:07;;;;;;;1.20;1.10;;;;;;;;;;4995752;28;20018;-67
2022/07/11 08:32:32;;;;;;;1.88;1.00;;;;;;;;;;5000586;28;20029;-67
2022/07/11 08:34:57;;;;;;;3.07;1.07;;;;;;;;;;5000961;28;20036;-67
2022/07/11 08:37:23;;;;;;;2.63;1.20;;;;;;;;;;5001292;28;20022;-67
2022/07/11 08:39:48;;;;;;;1.47;1.00;;;;;;;;;;4999167;28;20460;-68
2022/07/11 08:42:14;;;;;;;1.40;1.30;;;;;;;;;;5006546;28;20117;-67
2022/07/11 08:44:39;;;;;;;1.30;1.20;;;;;;;;;;5008647;28;20057;-67
2022/07/11 08:47:05;;;;;;;1.20;1.20;;;;;;;;;;5007506;28;20018;-67
2022/07/11 08:49:31;;;;;;;3.17;1.73;;;;;;;;;;5012571;28;20025;-67
2022/07/11 08:51:56;;;;;;;1.77;1.00;;;;;;;;;;5010633;28;20022;-66
2022/07/11 08:54:21;;;;;;;1.80;1.20;;;;;;;;;;5002672;28;20021;-67
2022/07/11 08:56:49;;;;;;;1.80;1.20;;;;;;;;;;5009605;28;20026;-67
2022/07/11 08:59:15;;;;;;;1.20;1.10;;;;;;;;;;5007488;28;20673;-67
2022/07/11 09:01:40;;;;;;;2.17;1.55;;;;;;;;;;4997724;28;20129;-67
2022/07/11 09:04:06;;;;;;;2.42;1.35;;;;;;;;;;5007751;28;20139;-67
2022/07/11 09:06:32;;;;;;;1.38;1.20;;;;;;;;;;5005987;28;20466;-67
2022/07/11 09:08:58;;;;;;;2.03;1.40;;;;;;;;;;5007867;28;20456;-67
2022/07/11 09:11:23;;;;;;;1.33;1.10;;;;;;;;;;5007263;28;20434;-67
2022/07/11 09:13:48;;;;;;;1.00;1.00;;;;;;;;;;5004299;28;20120;-67
2022/07/11 09:16:17;;;;;;;1.52;1.40;;;;;;;;;;5005173;28;20478;-67
2022/07/11 09:18:42;;;;;;;2.75;1.77;;;;;;;;;;5006747;28;20029;-67
2022/07/11 09:26:47;;;;;;;1.40;1.30;;;;;;;;;;5009526;28;20073;-67
2022/07/11 09:29:16;;;;;;;1.67;1.25;;;;;;;;;;5010578;28;20036;-67
2022/07/11 09:31:42;;;;;;;1.60;1.42;;;;;;;;;;5005671;28;20060;-67
2022/07/11 09:34:11;;;;;;;1.65;1.52;;;;;;;;;;5003114;28;20029;-67
2022/07/11 09:36:46;;;;;;;3.60;1.70;;;;;;;;;;4999590;28;20081;-66
2022/07/11 09:39:16;;;;;;;2.20;1.88;;;;;;;;;;5001983;28;20033;-66
2022/07/11 09:41:42;;;;;;;2.85;1.60;;;;;;;;;;5006199;28;20022;-66
2022/07/11 09:44:08;;;;;;;1.65;1.55;;;;;;;;;;5002392;28;20049;-66
2022/07/11 09:46:33;;;;;;;1.52;1.42;;;;;;;;;;5002351;28;20037;-66
2022/07/11 09:49:01;;;;;;;5.20;1.50;;;;;;;;;;5006092;28;20034;-67
2022/07/11 09:51:27;;;;;;;2.90;1.90;;;;;;;;;;5004530;28;20030;-67
2022/07/11 09:53:56;;;;;;;2.10;1.60;;;;;;;;;;5000169;28;20032;-67
2022/07/11 09:56:25;;;;;;;2.70;1.35;;;;;;;;;;5001805;28;20018;-66
2022/07/11 09:58:58;;;;;;;1.80;1.50;;;;;;;;;;5007930;28;20420;-67
2022/07/11 10:01:23;;;;;;;1.85;1.33;;;;;;;;;;5014456;28;20515;-66
2022/07/11 10:03:49;;;;;;;1.60;1.33;;;;;;;;;;5001852;28;20882;-66
2022/07/11 10:06:14;;;;;;;1.83;1.70;;;;;;;;;;5006421;28;20709;-66
2022/07/11 10:08:39;;;;;;;2.73;1.70;;;;;;;;;;5015377;28;20033;-66
2022/07/11 10:11:04;;;;;;;2.37;1.60;;;;;;;;;;5008402;28;20266;-66
2022/07/11 10:13:29;;;;;;;1.33;1.23;;;;;;;;;;5000984;28;20267;-66
2022/07/11 10:15:56;;;;;;;5.77;1.50;;;;;;;;;;5008236;28;20056;-66
2022/07/11 10:18:24;;;;;;;1.70;1.48;;;;;;;;;;5000243;28;20274;-67
2022/07/11 10:20:55;;;;;;;1.50;1.40;;;;;;;;;;5003488;28;20089;-67
2022/07/11 10:23:28;;;;;;;1.65;1.55;;;;;;;;;;4999291;28;20033;-67
2022/07/11 10:26:01;;;;;;;3.28;1.30;;;;;;;;;;4999714;28;20108;-67
2022/07/11 10:28:46;;;;;;;5.95;1.35;;;;;;;;;;5002161;28;20026;-67
2022/07/11 10:31:19;;;;;;;3.55;1.90;;;;;;;;;;4997752;28;20014;-67
2022/07/11 10:34:03;;;;;;;8.10;2.10;;;;;;;;;;5000191;28;20364;-67
2022/07/11 10:36:29;;;;;;;1.50;1.40;;;;;;;;;;5002413;28;20026;-67
2022/07/11 10:39:13;;;;;;;2.92;1.70;;;;;;;;;;4999196;28;20033;-66
2022/07/11 10:41:38;;;;;;;4.65;2.00;;;;;;;;;;5011786;28;20101;-67
2022/07/11 10:44:04;;;;;;;7.13;2.30;;;;;;;;;;5003150;28;20072;-67
2022/07/11 10:46:29;;;;;;;4.43;1.60;;;;;;;;;;4998977;28;20375;-67
2022/07/11 10:49:09;;;;;;;1.80;1.70;;;;;;;;;;5001026;28;20054;-67
2022/07/11 10:51:40;;;;;;;3.88;1.60;;;;;;;;;;5000878;28;20452;-67
2022/07/11 10:54:13;;;;;;;1.77;1.67;;;;;;;;;;4998215;28;20034;-67
2022/07/11 10:56:50;;;;;;;2.45;1.58;;;;;;;;;;5003748;28;20532;-67
2022/07/11 10:59:16;;;;;;;3.28;1.83;;;;;;;;;;4999104;28;20041;-67
2022/07/11 11:02:01;;;;;;;2.70;1.52;;;;;;;;;;5000150;28;20024;-67
2022/07/11 11:04:45;;;;;;;2.92;1.67;;;;;;;;;;4996452;28;20060;-67
2022/07/11 11:07:10;;;;;;;;;;;;;;;;;;5004446;28;20396;-67
2022/07/11 11:09:38;;;;;;;2.05;1.65;;;;;;;;;;5001724;28;19964;-67
2022/07/11 11:12:04;;;;;;;3.88;1.77;;;;;;;;;;5001412;28;20113;-67
2022/07/11 11:14:29;;;;;;;4.45;1.83;;;;;;;;;;4998961;28;20299;-67
2022/07/11 11:16:54;;;;;;;2.33;1.73;;;;;;;;;;5002336;28;20068;-67
2022/07/11 11:19:38;;;;;;;1.70;1.60;;;;;;;;;;5003762;28;20411;-67
2022/07/11 11:22:04;;;;;;;;;;;;;;;;;;4999933;28;20026;-67
2022/07/11 11:24:29;;;;;;;5.25;1.63;;;;;;;;;;4998897;28;20429;-67
2022/07/11 11:26:58;;;;;;;4.35;1.80;;;;;;;;;;4999756;28;20110;-66
2022/07/11 11:29:25;;;;;;;1.92;1.65;;;;;;;;;;4993120;28;20097;-67
2022/07/11 11:31:54;;;;;;;4.07;1.80;;;;;;;;;;5001600;28;20061;-72
2022/07/11 11:34:19;;;;;;;3.67;1.92;;;;;;;;;;5000237;28;20046;-66
2022/07/11 11:36:51;;;;;;;3.13;2.10;;;;;;;;;;5003224;28;20026;-66
2022/07/11 11:39:23;;;;;;;3.70;2.90;;;;;;;;;;5001584;28;20021;-66
2022/07/11 11:41:48;;;;;;;2.83;2.05;;;;;;;;;;5002266;28;20395;-69
2022/07/11 11:44:14;;;;;;;1.85;1.75;;;;;;;;;;4996908;28;20045;-66
2022/07/11 11:46:39;;;;;;;2.43;2.17;;;;;;;;;;5001403;28;20034;-67
2022/07/11 11:49:04;;;;;;;2.85;1.70;;;;;;;;;;4998584;28;20038;-66
2022/07/11 11:51:31;;;;;;;2.22;2.03;;;;;;;;;;5007868;28;20030;-67
2022/07/11 11:53:57;;;;;;;2.33;2.00;;;;;;;;;;5003346;28;20010;-66
2022/07/11 11:56:28;;;;;;;3.10;2.08;;;;;;;;;;5001382;28;20085;-66
2022/07/11 11:58:56;;;;;;;3.42;2.13;;;;;;;;;;5005336;28;20056;-66
2022/07/11 12:01:26;;;;;;;2.20;2.03;;;;;;;;;;5005025;28;20025;-67
2022/07/11 12:03:55;;;;;;;1.73;1.63;;;;;;;;;;5003387;28;20529;-67
2022/07/11 12:06:22;;;;;;;2.17;1.98;;;;;;;;;;5006337;28;20033;-67
2022/07/11 12:08:47;;;;;;;1.90;1.80;;;;;;;;;;4996890;28;20037;-67
2022/07/11 12:11:13;;;;;;;1.88;1.77;;;;;;;;;;5006323;28;20369;-66
2022/07/11 12:13:39;;;;;;;2.85;1.90;;;;;;;;;;5003925;28;20480;-70
2022/07/11 12:18:55;;;;;;;4.40;1.58;;;;;;;;;;5006919;28;20044;-66
2022/07/11 12:21:21;;;;;;;2.90;1.88;;;;;;;;;;5002814;28;20048;-66
2022/07/11 12:23:46;;;;;;;2.03;1.90;;;;;;;;;;4998737;28;20034;-67
2022/07/11 12:26:12;;;;;;;2.70;1.60;;;;;;;;;;5006526;28;20113;-67
2022/07/11 12:28:57;;;;;;;2.08;1.88;;;;;;;;;;5007454;28;20018;-67
2022/07/11 12:31:22;;;;;;;1.70;1.60;;;;;;;;;;5005634;28;20026;-67
2022/07/11 12:33:51;;;;;;;3.88;1.83;;;;;;;;;;5004121;28;20018;-67
2022/07/11 12:36:16;;;;;;;1.40;1.30;;;;;;;;;;5005596;28;20029;-67
2022/07/11 12:38:52;;;;;;;3.70;1.95;;;;;;;;;;5005470;28;20026;-66
2022/07/11 12:41:17;;;;;;;1.73;1.63;;;;;;;;;;5002726;28;20021;-67
2022/07/11 12:46:30;;;;;;;1.73;1.60;;;;;;;;;;5001294;28;20049;-66
2022/07/11 12:48:55;;;;;;;2.97;2.05;;;;;;;;;;5007056;28;20025;-67
2022/07/11 12:51:34;;;;;;;1.87;1.73;;;;;;;;;;5003865;28;20022;-67
2022/07/11 12:54:04;;;;;;;9.75;2.33;;;;;;;;;;4998397;28;20267;-66
2022/07/11 12:56:29;;;;;;;6.07;2.63;;;;;;;;;;5003474;28;20029;-67
2022/07/11 12:58:54;;;;;;;3.50;1.88;;;;;;;;;;5006892;28;20068;-67
2022/07/11 13:01:20;;;;;;;1.50;1.40;;;;;;;;;;5004581;28;20065;-67
2022/07/11 13:03:45;;;;;;;1.60;1.50;;;;;;;;;;5001843;28;20657;-67
2022/07/11 13:06:10;;;;;;;1.97;1.53;;;;;;;;;;5006877;28;20544;-66
2022/07/11 13:08:42;;;;;;;3.80;1.40;;;;;;;;;;5006999;28;20033;-66
2022/07/11 13:11:18;;;;;;;2.05;1.83;;;;;;;;;;4997203;28;20073;-66
2022/07/11 13:13:43;;;;;;;2.35;1.60;;;;;;;;;;5004677;28;20018;-66
2022/07/11 13:16:09;;;;;;;1.98;1.75;;;;;;;;;;4997082;28;20372;-66
2022/07/11 13:18:34;;;;;;;2.88;1.25;;;;;;;;;;5004734;28;20076;-66
2022/07/11 13:21:00;;;;;;;3.23;1.50;;;;;;;;;;5003629;28;20442;-66
2022/07/11 13:23:26;;;;;;;2.38;1.90;;;;;;;;;;4998783;28;20299;-67
2022/07/11 13:25:51;;;;;;;1.70;1.60;;;;;;;;;;5010130;28;20420;-67
2022/07/11 13:28:16;;;;;;;4.03;1.77;;;;;;;;;;5001637;28;20022;-67
2022/07/11 13:30:41;;;;;;;1.70;1.60;;;;;;;;;;5006329;28;20271;-67
2022/07/11 13:33:07;;;;;;;1.75;1.63;;;;;;;;;;5005010;28;20017;-67
2022/07/11 13:35:32;;;;;;;2.60;1.70;;;;;;;;;;5009867;28;20081;-66
2022/07/11 13:37:57;;;;;;;1.75;1.65;;;;;;;;;;5009534;28;20267;-67
2022/07/11 13:40:23;;;;;;;1.60;1.50;;;;;;;;;;5002030;28;20531;-67
2022/07/11 13:42:49;;;;;;;1.70;1.55;;;;;;;;;;5006560;28;20030;-67
2022/07/11 13:45:15;;;;;;;1.52;1.42;;;;;;;;;;5002728;28;20353;-67
2022/07/11 13:47:40;;;;;;;7.90;1.77;;;;;;;;;;5008218;28;20030;-66
2022/07/11 13:50:06;;;;;;;2.27;1.40;;;;;;;;;;5009960;28;20065;-67
2022/07/11 13:52:31;;;;;;;1.63;1.52;;;;;;;;;;5005367;28;20742;-67
2022/07/11 13:54:57;;;;;;;2.63;1.60;;;;;;;;;;5003394;28;20037;-67
2022/07/11 13:57:22;;;;;;;1.55;1.45;;;;;;;;;;5009384;28;20563;-67
2022/07/11 13:59:48;;;;;;;1.67;1.33;;;;;;;;;;5009219;28;20038;-67
2022/07/11 14:02:13;;;;;;;3.22;1.27;;;;;;;;;;5001701;28;20093;-67
2022/07/11 14:04:38;;;;;;;1.50;1.40;;;;;;;;;;4994216;28;20420;-67
2022/07/11 14:07:04;;;;;;;3.20;1.60;;;;;;;;;;4996777;28;20373;-67
2022/07/11 14:09:29;;;;;;;1.57;1.47;;;;;;;;;;5010626;28;20026;-67
2022/07/11 14:11:54;;;;;;;1.63;1.53;;;;;;;;;;5003549;28;20289;-67
2022/07/11 14:14:19;;;;;;;1.33;1.23;;;;;;;;;;5008479;28;20014;-66
2022/07/11 14:16:45;;;;;;;1.43;1.30;;;;;;;;;;4993397;28;20040;-67
2022/07/11 14:19:10;;;;;;;1.17;1.17;;;;;;;;;;5004441;28;20367;-68
2022/07/11 14:21:39;;;;;;;2.00;1.90;;;;;;;;;;5002269;28;20301;-68
2022/07/11 14:24:05;;;;;;;2.85;1.50;;;;;;;;;;5004317;28;20020;-67
2022/07/11 14:26:31;;;;;;;2.30;1.60;;;;;;;;;;5011122;28;20102;-67
2022/07/11 14:28:56;;;;;;;1.40;1.30;;;;;;;;;;5013470;28;20108;-66
2022/07/11 14:31:24;;;;;;;1.07;1.07;;;;;;;;;;5015316;28;20105;-66
2022/07/11 14:33:50;;;;;;;3.00;1.30;;;;;;;;;;5003311;28;20097;-66
2022/07/11 14:36:16;;;;;;;1.50;1.40;;;;;;;;;;5007878;28;20057;-67
2022/07/11 14:38:41;;;;;;;1.67;1.30;;;;;;;;;;5004992;28;20060;-67
2022/07/11 14:41:07;;;;;;;2.47;1.75;;;;;;;;;;5007024;28;20049;-67
2022/07/11 14:43:32;;;;;;;1.40;1.30;;;;;;;;;;5004508;28;20398;-67
2022/07/11 14:45:57;;;;;;;4.07;1.25;;;;;;;;;;5003682;28;20307;-67
2022/07/11 14:48:22;;;;;;;1.42;1.00;;;;;;;;;;4999516;28;20025;-66